sensor_id;sensor_type;location;lat;lon;timestamp;P1;durP1;ratioP1;P2;durP2;ratioP2
56075;SDS011;41951;49.022;12.066;2023-03-31T00:00:51;10.25;;;4.32;;
56075;SDS011;41951;49.022;12.066;2023-03-31T00:03:18;10.80;;;4.10;;
56075;SDS011;41951;49.022;12.066;2023-03-31T00:05:47;10.02;;;4.40;;
56075;SDS011;41951;49.022;12.066;2023-03-31T00:08:17;10.52;;;4.40;;
56075;SDS011;41951;49.022;12.066;2023-03-31T00:10:43;8.75;;;4.47;;
56075;SDS011;41951;49.022;12.066;2023-03-31T00:13:10;7.93;;;4.28;;
56075;SDS011;41951;49.022;12.066;2023-03-31T00:15:37;8.27;;;3.70;;
56075;SDS011;41951;49.022;12.066;2023-03-31T00:18:02;7.72;;;4.13;;
56075;SDS011;41951;49.022;12.066;2023-03-31T00:20:28;9.32;;;3.83;;
56075;SDS011;41951;49.022;12.066;2023-03-31T00:22:57;12.07;;;3.92;;
56075;SDS011;41951;49.022;12.066;2023-03-31T00:25:23;9.68;;;4.30;;
56075;SDS011;41951;49.022;12.066;2023-03-31T00:27:50;12.45;;;4.15;;
56075;SDS011;41951;49.022;12.066;2023-03-31T00:30:16;9.70;;;3.60;;
56075;SDS011;41951;49.022;12.066;2023-03-31T00:32:42;8.82;;;4.40;;
56075;SDS011;41951;49.022;12.066;2023-03-31T00:35:07;9.73;;;4.65;;
56075;SDS011;41951;49.022;12.066;2023-03-31T00:37:33;8.45;;;3.50;;
56075;SDS011;41951;49.022;12.066;2023-03-31T00:39:59;8.60;;;3.88;;
56075;SDS011;41951;49.022;12.066;2023-03-31T00:42:25;6.68;;;3.50;;
56075;SDS011;41951;49.022;12.066;2023-03-31T00:47:46;11.43;;;4.40;;
56075;SDS011;41951;49.022;12.066;2023-03-31T00:50:15;7.65;;;3.92;;
56075;SDS011;41951;49.022;12.066;2023-03-31T00:52:44;11.60;;;4.13;;
56075;SDS011;41951;49.022;12.066;2023-03-31T00:55:18;7.93;;;4.20;;
56075;SDS011;41951;49.022;12.066;2023-03-31T00:57:49;9.43;;;3.88;;
56075;SDS011;41951;49.022;12.066;2023-03-31T01:00:17;9.70;;;4.32;;
56075;SDS011;41951;49.022;12.066;2023-03-31T01:02:45;9.25;;;4.40;;
56075;SDS011;41951;49.022;12.066;2023-03-31T01:05:20;8.23;;;3.65;;
56075;SDS011;41951;49.022;12.066;2023-03-31T01:07:49;9.32;;;4.35;;
56075;SDS011;41951;49.022;12.066;2023-03-31T01:10:16;9.35;;;4.30;;
56075;SDS011;41951;49.022;12.066;2023-03-31T01:12:46;8.13;;;4.45;;
56075;SDS011;41951;49.022;12.066;2023-03-31T01:15:14;9.63;;;4.47;;
56075;SDS011;41951;49.022;12.066;2023-03-31T01:17:40;6.88;;;3.83;;
56075;SDS011;41951;49.022;12.066;2023-03-31T01:33:59;8.10;;;3.88;;
56075;SDS011;41951;49.022;12.066;2023-03-31T01:48:18;9.27;;;4.45;;
56075;SDS011;41951;49.022;12.066;2023-03-31T01:55:59;9.73;;;4.10;;
56075;SDS011;41951;49.022;12.066;2023-03-31T01:58:39;12.23;;;4.55;;
56075;SDS011;41951;49.022;12.066;2023-03-31T02:03:41;8.55;;;3.80;;
56075;SDS011;41951;49.022;12.066;2023-03-31T02:06:15;7.20;;;3.95;;
56075;SDS011;41951;49.022;12.066;2023-03-31T02:08:47;12.05;;;4.70;;
56075;SDS011;41951;49.022;12.066;2023-03-31T02:11:18;8.52;;;4.20;;
56075;SDS011;41951;49.022;12.066;2023-03-31T02:13:45;7.45;;;4.32;;
56075;SDS011;41951;49.022;12.066;2023-03-31T02:16:15;11.40;;;4.88;;
56075;SDS011;41951;49.022;12.066;2023-03-31T02:18:48;8.15;;;3.97;;
56075;SDS011;41951;49.022;12.066;2023-03-31T02:21:18;10.80;;;4.20;;
56075;SDS011;41951;49.022;12.066;2023-03-31T02:23:44;8.38;;;4.43;;
56075;SDS011;41951;49.022;12.066;2023-03-31T02:26:13;7.75;;;4.20;;
56075;SDS011;41951;49.022;12.066;2023-03-31T02:28:42;8.02;;;4.43;;
56075;SDS011;41951;49.022;12.066;2023-03-31T02:34:10;9.52;;;5.10;;
56075;SDS011;41951;49.022;12.066;2023-03-31T02:36:36;8.48;;;4.50;;
56075;SDS011;41951;49.022;12.066;2023-03-31T02:39:08;10.38;;;4.55;;
56075;SDS011;41951;49.022;12.066;2023-03-31T02:41:40;11.35;;;5.10;;
56075;SDS011;41951;49.022;12.066;2023-03-31T02:44:07;10.48;;;4.75;;
56075;SDS011;41951;49.022;12.066;2023-03-31T02:46:33;8.73;;;4.95;;
56075;SDS011;41951;49.022;12.066;2023-03-31T02:48:59;9.93;;;4.75;;
56075;SDS011;41951;49.022;12.066;2023-03-31T03:07:24;7.30;;;4.47;;
56075;SDS011;41951;49.022;12.066;2023-03-31T03:12:32;7.85;;;4.72;;
56075;SDS011;41951;49.022;12.066;2023-03-31T03:15:17;11.23;;;5.00;;
56075;SDS011;41951;49.022;12.066;2023-03-31T03:17:50;11.18;;;5.15;;
56075;SDS011;41951;49.022;12.066;2023-03-31T03:20:18;8.70;;;4.60;;
56075;SDS011;41951;49.022;12.066;2023-03-31T03:22:44;12.90;;;4.75;;
56075;SDS011;41951;49.022;12.066;2023-03-31T03:25:11;8.00;;;4.93;;
56075;SDS011;41951;49.022;12.066;2023-03-31T03:27:38;8.13;;;4.80;;
56075;SDS011;41951;49.022;12.066;2023-03-31T03:30:05;8.07;;;5.20;;
56075;SDS011;41951;49.022;12.066;2023-03-31T03:32:33;7.63;;;4.72;;
56075;SDS011;41951;49.022;12.066;2023-03-31T03:35:00;7.43;;;4.40;;
56075;SDS011;41951;49.022;12.066;2023-03-31T03:37:26;14.20;;;5.57;;
56075;SDS011;41951;49.022;12.066;2023-03-31T03:39:52;12.52;;;5.25;;
56075;SDS011;41951;49.022;12.066;2023-03-31T03:42:17;9.35;;;5.38;;
56075;SDS011;41951;49.022;12.066;2023-03-31T03:44:43;9.07;;;5.45;;
56075;SDS011;41951;49.022;12.066;2023-03-31T03:47:08;12.25;;;5.80;;
56075;SDS011;41951;49.022;12.066;2023-03-31T03:49:34;9.80;;;5.28;;
56075;SDS011;41951;49.022;12.066;2023-03-31T03:51:59;10.68;;;5.78;;
56075;SDS011;41951;49.022;12.066;2023-03-31T03:54:25;10.75;;;5.70;;
56075;SDS011;41951;49.022;12.066;2023-03-31T03:56:50;9.25;;;5.45;;
56075;SDS011;41951;49.022;12.066;2023-03-31T03:59:16;9.48;;;5.70;;
56075;SDS011;41951;49.022;12.066;2023-03-31T04:01:41;9.07;;;5.28;;
56075;SDS011;41951;49.022;12.066;2023-03-31T04:04:07;9.55;;;5.72;;
56075;SDS011;41951;49.022;12.066;2023-03-31T04:06:33;7.65;;;4.93;;
56075;SDS011;41951;49.022;12.066;2023-03-31T04:08:58;11.85;;;5.78;;
56075;SDS011;41951;49.022;12.066;2023-03-31T04:11:24;12.70;;;5.22;;
56075;SDS011;41951;49.022;12.066;2023-03-31T04:13:50;9.75;;;6.07;;
56075;SDS011;41951;49.022;12.066;2023-03-31T04:16:16;8.73;;;5.13;;
56075;SDS011;41951;49.022;12.066;2023-03-31T04:18:41;10.23;;;5.28;;
56075;SDS011;41951;49.022;12.066;2023-03-31T04:21:08;10.52;;;5.50;;
56075;SDS011;41951;49.022;12.066;2023-03-31T04:23:36;8.55;;;5.40;;
56075;SDS011;41951;49.022;12.066;2023-03-31T04:26:06;8.27;;;5.10;;
56075;SDS011;41951;49.022;12.066;2023-03-31T04:28:33;9.77;;;5.28;;
56075;SDS011;41951;49.022;12.066;2023-03-31T04:31:00;9.52;;;5.60;;
56075;SDS011;41951;49.022;12.066;2023-03-31T04:33:27;8.95;;;5.43;;
56075;SDS011;41951;49.022;12.066;2023-03-31T04:35:53;11.48;;;5.50;;
56075;SDS011;41951;49.022;12.066;2023-03-31T04:38:19;10.55;;;5.53;;
56075;SDS011;41951;49.022;12.066;2023-03-31T04:40:47;12.68;;;6.47;;
56075;SDS011;41951;49.022;12.066;2023-03-31T04:43:17;11.97;;;6.63;;
56075;SDS011;41951;49.022;12.066;2023-03-31T04:45:44;14.93;;;6.47;;
56075;SDS011;41951;49.022;12.066;2023-03-31T04:48:09;9.25;;;6.10;;
56075;SDS011;41951;49.022;12.066;2023-03-31T04:50:36;15.77;;;7.00;;
56075;SDS011;41951;49.022;12.066;2023-03-31T04:53:02;15.50;;;6.57;;
56075;SDS011;41951;49.022;12.066;2023-03-31T04:55:28;11.25;;;6.22;;
56075;SDS011;41951;49.022;12.066;2023-03-31T04:57:54;10.68;;;6.38;;
56075;SDS011;41951;49.022;12.066;2023-03-31T05:00:20;11.27;;;7.28;;
56075;SDS011;41951;49.022;12.066;2023-03-31T05:02:46;12.90;;;7.50;;
56075;SDS011;41951;49.022;12.066;2023-03-31T05:05:11;12.18;;;6.70;;
56075;SDS011;41951;49.022;12.066;2023-03-31T05:07:37;15.63;;;7.32;;
56075;SDS011;41951;49.022;12.066;2023-03-31T05:10:04;11.32;;;6.95;;
56075;SDS011;41951;49.022;12.066;2023-03-31T05:12:36;11.82;;;6.82;;
56075;SDS011;41951;49.022;12.066;2023-03-31T05:15:02;11.57;;;7.30;;
56075;SDS011;41951;49.022;12.066;2023-03-31T05:17:30;10.82;;;7.20;;
56075;SDS011;41951;49.022;12.066;2023-03-31T05:19:57;15.48;;;7.57;;
56075;SDS011;41951;49.022;12.066;2023-03-31T05:22:22;12.75;;;8.18;;
56075;SDS011;41951;49.022;12.066;2023-03-31T05:24:48;17.75;;;8.02;;
56075;SDS011;41951;49.022;12.066;2023-03-31T05:27:14;15.05;;;8.68;;
56075;SDS011;41951;49.022;12.066;2023-03-31T05:29:40;14.45;;;8.20;;
56075;SDS011;41951;49.022;12.066;2023-03-31T05:32:06;12.57;;;8.23;;
56075;SDS011;41951;49.022;12.066;2023-03-31T05:34:31;14.85;;;8.70;;
56075;SDS011;41951;49.022;12.066;2023-03-31T05:36:57;14.23;;;8.45;;
56075;SDS011;41951;49.022;12.066;2023-03-31T05:39:23;13.80;;;8.55;;
56075;SDS011;41951;49.022;12.066;2023-03-31T05:41:49;11.38;;;7.90;;
56075;SDS011;41951;49.022;12.066;2023-03-31T05:44:14;16.08;;;8.30;;
56075;SDS011;41951;49.022;12.066;2023-03-31T05:46:40;12.30;;;7.43;;
56075;SDS011;41951;49.022;12.066;2023-03-31T05:49:06;16.13;;;7.88;;
56075;SDS011;41951;49.022;12.066;2023-03-31T05:51:32;14.82;;;8.07;;
56075;SDS011;41951;49.022;12.066;2023-03-31T05:53:58;15.52;;;8.10;;
56075;SDS011;41951;49.022;12.066;2023-03-31T05:56:23;24.08;;;9.25;;
56075;SDS011;41951;49.022;12.066;2023-03-31T05:58:51;16.00;;;7.90;;
56075;SDS011;41951;49.022;12.066;2023-03-31T06:01:17;17.13;;;8.23;;
56075;SDS011;41951;49.022;12.066;2023-03-31T06:03:47;14.45;;;8.98;;
56075;SDS011;41951;49.022;12.066;2023-03-31T06:06:13;18.75;;;9.15;;
56075;SDS011;41951;49.022;12.066;2023-03-31T06:08:40;19.85;;;9.10;;
56075;SDS011;41951;49.022;12.066;2023-03-31T06:11:07;13.73;;;9.00;;
56075;SDS011;41951;49.022;12.066;2023-03-31T06:13:38;16.60;;;9.73;;
56075;SDS011;41951;49.022;12.066;2023-03-31T06:16:04;15.70;;;9.00;;
56075;SDS011;41951;49.022;12.066;2023-03-31T06:18:31;12.75;;;8.80;;
56075;SDS011;41951;49.022;12.066;2023-03-31T06:20:58;15.95;;;8.93;;
56075;SDS011;41951;49.022;12.066;2023-03-31T06:23:24;19.95;;;9.48;;
56075;SDS011;41951;49.022;12.066;2023-03-31T06:25:50;14.05;;;8.77;;
56075;SDS011;41951;49.022;12.066;2023-03-31T06:28:18;18.10;;;8.80;;
56075;SDS011;41951;49.022;12.066;2023-03-31T06:30:45;14.82;;;9.52;;
56075;SDS011;41951;49.022;12.066;2023-03-31T06:33:10;17.00;;;8.65;;
56075;SDS011;41951;49.022;12.066;2023-03-31T06:35:37;15.82;;;9.02;;
56075;SDS011;41951;49.022;12.066;2023-03-31T06:38:03;13.43;;;7.82;;
56075;SDS011;41951;49.022;12.066;2023-03-31T06:40:29;49.40;;;13.45;;
56075;SDS011;41951;49.022;12.066;2023-03-31T06:42:54;31.58;;;11.65;;
56075;SDS011;41951;49.022;12.066;2023-03-31T06:45:20;17.23;;;8.43;;
56075;SDS011;41951;49.022;12.066;2023-03-31T06:47:46;22.85;;;11.57;;
56075;SDS011;41951;49.022;12.066;2023-03-31T06:50:12;12.32;;;8.38;;
56075;SDS011;41951;49.022;12.066;2023-03-31T06:52:37;16.23;;;9.57;;
56075;SDS011;41951;49.022;12.066;2023-03-31T06:55:04;14.27;;;7.95;;
56075;SDS011;41951;49.022;12.066;2023-03-31T06:57:31;16.55;;;8.25;;
56075;SDS011;41951;49.022;12.066;2023-03-31T06:59:58;12.75;;;7.70;;
56075;SDS011;41951;49.022;12.066;2023-03-31T07:02:24;17.45;;;8.07;;
56075;SDS011;41951;49.022;12.066;2023-03-31T07:04:49;12.57;;;8.25;;
56075;SDS011;41951;49.022;12.066;2023-03-31T07:07:15;12.20;;;8.35;;
56075;SDS011;41951;49.022;12.066;2023-03-31T07:09:40;12.70;;;9.13;;
56075;SDS011;41951;49.022;12.066;2023-03-31T07:12:06;14.25;;;7.88;;
56075;SDS011;41951;49.022;12.066;2023-03-31T07:14:32;17.35;;;8.73;;
56075;SDS011;41951;49.022;12.066;2023-03-31T07:16:57;13.85;;;7.90;;
56075;SDS011;41951;49.022;12.066;2023-03-31T07:19:23;19.17;;;8.43;;
56075;SDS011;41951;49.022;12.066;2023-03-31T07:21:49;14.25;;;8.70;;
56075;SDS011;41951;49.022;12.066;2023-03-31T07:24:15;14.57;;;7.85;;
56075;SDS011;41951;49.022;12.066;2023-03-31T07:26:41;15.27;;;8.15;;
56075;SDS011;41951;49.022;12.066;2023-03-31T07:29:07;12.00;;;7.45;;
56075;SDS011;41951;49.022;12.066;2023-03-31T07:31:33;15.95;;;8.30;;
56075;SDS011;41951;49.022;12.066;2023-03-31T07:34:00;17.45;;;8.20;;
56075;SDS011;41951;49.022;12.066;2023-03-31T07:36:29;16.42;;;8.13;;
56075;SDS011;41951;49.022;12.066;2023-03-31T07:38:55;13.40;;;8.32;;
56075;SDS011;41951;49.022;12.066;2023-03-31T07:41:21;24.60;;;16.00;;
56075;SDS011;41951;49.022;12.066;2023-03-31T07:43:47;15.85;;;9.45;;
56075;SDS011;41951;49.022;12.066;2023-03-31T07:46:14;15.80;;;9.25;;
56075;SDS011;41951;49.022;12.066;2023-03-31T07:48:51;13.57;;;7.97;;
56075;SDS011;41951;49.022;12.066;2023-03-31T07:51:18;15.30;;;8.48;;
56075;SDS011;41951;49.022;12.066;2023-03-31T07:53:45;16.90;;;8.25;;
56075;SDS011;41951;49.022;12.066;2023-03-31T07:56:13;12.13;;;7.80;;
56075;SDS011;41951;49.022;12.066;2023-03-31T07:58:40;15.20;;;7.78;;
56075;SDS011;41951;49.022;12.066;2023-03-31T08:01:07;13.50;;;8.07;;
56075;SDS011;41951;49.022;12.066;2023-03-31T08:03:33;12.30;;;7.70;;
56075;SDS011;41951;49.022;12.066;2023-03-31T08:05:59;12.80;;;7.85;;
56075;SDS011;41951;49.022;12.066;2023-03-31T08:08:25;12.73;;;7.57;;
56075;SDS011;41951;49.022;12.066;2023-03-31T08:10:50;14.73;;;8.23;;
56075;SDS011;41951;49.022;12.066;2023-03-31T08:13:16;11.32;;;8.32;;
56075;SDS011;41951;49.022;12.066;2023-03-31T08:15:42;12.68;;;8.05;;
56075;SDS011;41951;49.022;12.066;2023-03-31T08:18:07;10.57;;;7.10;;
56075;SDS011;41951;49.022;12.066;2023-03-31T08:20:33;10.88;;;6.97;;
56075;SDS011;41951;49.022;12.066;2023-03-31T08:22:59;11.60;;;8.25;;
56075;SDS011;41951;49.022;12.066;2023-03-31T08:25:24;16.52;;;7.70;;
56075;SDS011;41951;49.022;12.066;2023-03-31T08:27:50;12.05;;;7.60;;
56075;SDS011;41951;49.022;12.066;2023-03-31T08:30:17;21.00;;;8.13;;
56075;SDS011;41951;49.022;12.066;2023-03-31T08:32:44;14.07;;;7.32;;
56075;SDS011;41951;49.022;12.066;2023-03-31T08:35:10;17.95;;;8.98;;
56075;SDS011;41951;49.022;12.066;2023-03-31T08:37:36;11.07;;;7.05;;
56075;SDS011;41951;49.022;12.066;2023-03-31T08:40:05;12.30;;;7.80;;
56075;SDS011;41951;49.022;12.066;2023-03-31T08:42:43;16.48;;;9.18;;
56075;SDS011;41951;49.022;12.066;2023-03-31T08:45:24;13.77;;;8.38;;
56075;SDS011;41951;49.022;12.066;2023-03-31T08:47:57;12.75;;;9.07;;
56075;SDS011;41951;49.022;12.066;2023-03-31T08:50:27;15.32;;;9.90;;
56075;SDS011;41951;49.022;12.066;2023-03-31T08:55:33;12.80;;;8.15;;
56075;SDS011;41951;49.022;12.066;2023-03-31T09:09:31;12.05;;;8.35;;
56075;SDS011;41951;49.022;12.066;2023-03-31T09:12:22;11.70;;;7.88;;
56075;SDS011;41951;49.022;12.066;2023-03-31T09:15:01;11.27;;;8.20;;
56075;SDS011;41951;49.022;12.066;2023-03-31T09:17:48;12.50;;;8.68;;
56075;SDS011;41951;49.022;12.066;2023-03-31T09:20:22;13.32;;;7.93;;
56075;SDS011;41951;49.022;12.066;2023-03-31T09:23:03;13.25;;;8.38;;
56075;SDS011;41951;49.022;12.066;2023-03-31T09:25:41;11.57;;;8.25;;
56075;SDS011;41951;49.022;12.066;2023-03-31T09:28:13;12.45;;;9.10;;
56075;SDS011;41951;49.022;12.066;2023-03-31T09:30:44;11.52;;;8.55;;
56075;SDS011;41951;49.022;12.066;2023-03-31T09:33:18;13.15;;;7.95;;
56075;SDS011;41951;49.022;12.066;2023-03-31T09:35:56;11.05;;;7.95;;
56075;SDS011;41951;49.022;12.066;2023-03-31T09:38:23;10.48;;;7.43;;
56075;SDS011;41951;49.022;12.066;2023-03-31T09:40:53;10.65;;;7.32;;
56075;SDS011;41951;49.022;12.066;2023-03-31T09:43:23;9.90;;;6.70;;
56075;SDS011;41951;49.022;12.066;2023-03-31T09:45:51;10.13;;;8.00;;
56075;SDS011;41951;49.022;12.066;2023-03-31T09:48:18;10.68;;;7.85;;
56075;SDS011;41951;49.022;12.066;2023-03-31T09:50:57;12.07;;;8.02;;
56075;SDS011;41951;49.022;12.066;2023-03-31T09:53:42;9.20;;;7.32;;
56075;SDS011;41951;49.022;12.066;2023-03-31T09:56:30;14.13;;;7.35;;
56075;SDS011;41951;49.022;12.066;2023-03-31T09:58:59;10.57;;;7.22;;
56075;SDS011;41951;49.022;12.066;2023-03-31T10:01:26;11.90;;;7.80;;
56075;SDS011;41951;49.022;12.066;2023-03-31T10:03:54;13.30;;;8.60;;
56075;SDS011;41951;49.022;12.066;2023-03-31T10:06:20;10.98;;;6.95;;
56075;SDS011;41951;49.022;12.066;2023-03-31T10:11:13;12.63;;;8.25;;
56075;SDS011;41951;49.022;12.066;2023-03-31T10:16:11;16.00;;;11.07;;
56075;SDS011;41951;49.022;12.066;2023-03-31T10:18:44;15.75;;;10.65;;
56075;SDS011;41951;49.022;12.066;2023-03-31T10:23:48;12.82;;;8.07;;
56075;SDS011;41951;49.022;12.066;2023-03-31T10:26:21;10.82;;;7.70;;
56075;SDS011;41951;49.022;12.066;2023-03-31T10:28:50;14.75;;;8.15;;
56075;SDS011;41951;49.022;12.066;2023-03-31T10:31:17;11.48;;;7.35;;
56075;SDS011;41951;49.022;12.066;2023-03-31T10:33:47;11.82;;;7.28;;
56075;SDS011;41951;49.022;12.066;2023-03-31T10:36:23;12.85;;;6.53;;
56075;SDS011;41951;49.022;12.066;2023-03-31T10:38:51;10.68;;;6.10;;
56075;SDS011;41951;49.022;12.066;2023-03-31T10:41:19;9.05;;;5.88;;
56075;SDS011;41951;49.022;12.066;2023-03-31T10:43:49;10.75;;;4.75;;
56075;SDS011;41951;49.022;12.066;2023-03-31T10:46:16;10.75;;;4.38;;
56075;SDS011;41951;49.022;12.066;2023-03-31T10:48:42;6.60;;;4.35;;
56075;SDS011;41951;49.022;12.066;2023-03-31T10:53:41;9.07;;;4.30;;
56075;SDS011;41951;49.022;12.066;2023-03-31T10:56:30;5.97;;;3.30;;
56075;SDS011;41951;49.022;12.066;2023-03-31T11:02:37;7.32;;;3.22;;
56075;SDS011;41951;49.022;12.066;2023-03-31T11:05:07;5.75;;;3.10;;
56075;SDS011;41951;49.022;12.066;2023-03-31T11:21:45;8.02;;;2.60;;
56075;SDS011;41951;49.022;12.066;2023-03-31T11:30:37;7.47;;;2.83;;
56075;SDS011;41951;49.022;12.066;2023-03-31T11:38:46;5.72;;;2.53;;
56075;SDS011;41951;49.022;12.066;2023-03-31T11:44:03;7.85;;;2.25;;
56075;SDS011;41951;49.022;12.066;2023-03-31T11:46:40;9.60;;;2.20;;
56075;SDS011;41951;49.022;12.066;2023-03-31T11:49:21;5.60;;;1.98;;
56075;SDS011;41951;49.022;12.066;2023-03-31T11:52:02;4.68;;;2.00;;
56075;SDS011;41951;49.022;12.066;2023-03-31T11:54:38;5.13;;;1.65;;
56075;SDS011;41951;49.022;12.066;2023-03-31T11:57:12;4.75;;;1.60;;
56075;SDS011;41951;49.022;12.066;2023-03-31T11:59:46;5.72;;;1.63;;
56075;SDS011;41951;49.022;12.066;2023-03-31T12:02:32;3.92;;;1.80;;
56075;SDS011;41951;49.022;12.066;2023-03-31T12:05:08;2.63;;;1.25;;
56075;SDS011;41951;49.022;12.066;2023-03-31T12:07:44;5.22;;;1.70;;
56075;SDS011;41951;49.022;12.066;2023-03-31T12:11:06;4.93;;;1.80;;
56075;SDS011;41951;49.022;12.066;2023-03-31T12:19:05;3.35;;;1.27;;
56075;SDS011;41951;49.022;12.066;2023-03-31T12:21:39;6.45;;;1.40;;
56075;SDS011;41951;49.022;12.066;2023-03-31T12:24:29;2.53;;;1.20;;
56075;SDS011;41951;49.022;12.066;2023-03-31T12:30:21;2.85;;;1.10;;
56075;SDS011;41951;49.022;12.066;2023-03-31T12:38:19;2.92;;;1.15;;
56075;SDS011;41951;49.022;12.066;2023-03-31T12:52:50;9.52;;;1.65;;
56075;SDS011;41951;49.022;12.066;2023-03-31T12:55:22;4.53;;;1.20;;
56075;SDS011;41951;49.022;12.066;2023-03-31T12:57:52;4.80;;;1.35;;
56075;SDS011;41951;49.022;12.066;2023-03-31T13:06:07;3.53;;;1.20;;
56075;SDS011;41951;49.022;12.066;2023-03-31T13:08:55;6.85;;;1.65;;
56075;SDS011;41951;49.022;12.066;2023-03-31T13:16:30;4.50;;;1.30;;
56075;SDS011;41951;49.022;12.066;2023-03-31T13:18:57;4.20;;;1.20;;
56075;SDS011;41951;49.022;12.066;2023-03-31T13:21:23;2.10;;;1.10;;
56075;SDS011;41951;49.022;12.066;2023-03-31T13:23:50;3.05;;;1.20;;
56075;SDS011;41951;49.022;12.066;2023-03-31T13:29:17;3.58;;;1.38;;
56075;SDS011;41951;49.022;12.066;2023-03-31T13:39:51;6.05;;;1.10;;
56075;SDS011;41951;49.022;12.066;2023-03-31T13:43:03;10.40;;;1.48;;
56075;SDS011;41951;49.022;12.066;2023-03-31T13:48:37;3.28;;;0.98;;
56075;SDS011;41951;49.022;12.066;2023-03-31T14:07:57;4.30;;;0.80;;
56075;SDS011;41951;49.022;12.066;2023-03-31T14:10:31;1.73;;;0.70;;
56075;SDS011;41951;49.022;12.066;2023-03-31T14:15:36;0.70;;;0.60;;
56075;SDS011;41951;49.022;12.066;2023-03-31T14:18:07;1.65;;;0.60;;
56075;SDS011;41951;49.022;12.066;2023-03-31T14:20:47;6.15;;;1.13;;
56075;SDS011;41951;49.022;12.066;2023-03-31T14:26:32;3.03;;;0.80;;
56075;SDS011;41951;49.022;12.066;2023-03-31T14:29:22;5.93;;;0.90;;
56075;SDS011;41951;49.022;12.066;2023-03-31T14:35:02;2.10;;;0.90;;
56075;SDS011;41951;49.022;12.066;2023-03-31T14:37:30;4.75;;;1.75;;
56075;SDS011;41951;49.022;12.066;2023-03-31T14:39:56;3.13;;;0.90;;
56075;SDS011;41951;49.022;12.066;2023-03-31T14:42:27;1.27;;;0.60;;
56075;SDS011;41951;49.022;12.066;2023-03-31T14:45:01;4.15;;;1.00;;
56075;SDS011;41951;49.022;12.066;2023-03-31T14:47:28;3.30;;;0.80;;
56075;SDS011;41951;49.022;12.066;2023-03-31T14:49:58;1.95;;;0.75;;
56075;SDS011;41951;49.022;12.066;2023-03-31T14:52:36;4.65;;;1.08;;
56075;SDS011;41951;49.022;12.066;2023-03-31T14:55:02;5.82;;;1.15;;
56075;SDS011;41951;49.022;12.066;2023-03-31T14:57:29;2.95;;;1.17;;
56075;SDS011;41951;49.022;12.066;2023-03-31T14:59:58;3.15;;;1.25;;
56075;SDS011;41951;49.022;12.066;2023-03-31T15:02:32;5.40;;;0.93;;
56075;SDS011;41951;49.022;12.066;2023-03-31T15:05:05;3.35;;;1.00;;
56075;SDS011;41951;49.022;12.066;2023-03-31T15:07:34;2.67;;;0.80;;
56075;SDS011;41951;49.022;12.066;2023-03-31T15:10:00;2.97;;;0.70;;
56075;SDS011;41951;49.022;12.066;2023-03-31T15:12:28;3.00;;;1.00;;
56075;SDS011;41951;49.022;12.066;2023-03-31T15:14:56;2.55;;;0.90;;
56075;SDS011;41951;49.022;12.066;2023-03-31T15:17:28;1.83;;;1.00;;
56075;SDS011;41951;49.022;12.066;2023-03-31T15:20:00;2.95;;;1.10;;
56075;SDS011;41951;49.022;12.066;2023-03-31T15:22:43;2.63;;;1.08;;
56075;SDS011;41951;49.022;12.066;2023-03-31T15:25:11;2.50;;;1.00;;
56075;SDS011;41951;49.022;12.066;2023-03-31T15:27:45;2.27;;;0.80;;
56075;SDS011;41951;49.022;12.066;2023-03-31T15:30:22;4.60;;;1.40;;
56075;SDS011;41951;49.022;12.066;2023-03-31T15:32:50;2.78;;;1.00;;
56075;SDS011;41951;49.022;12.066;2023-03-31T15:35:31;3.13;;;1.00;;
56075;SDS011;41951;49.022;12.066;2023-03-31T15:37:59;2.45;;;1.00;;
56075;SDS011;41951;49.022;12.066;2023-03-31T15:40:29;2.85;;;1.08;;
56075;SDS011;41951;49.022;12.066;2023-03-31T15:43:07;3.70;;;1.17;;
56075;SDS011;41951;49.022;12.066;2023-03-31T15:45:52;3.38;;;1.23;;
56075;SDS011;41951;49.022;12.066;2023-03-31T15:48:30;2.45;;;1.15;;
56075;SDS011;41951;49.022;12.066;2023-03-31T15:50:59;2.22;;;0.95;;
56075;SDS011;41951;49.022;12.066;2023-03-31T15:53:47;3.33;;;1.10;;
56075;SDS011;41951;49.022;12.066;2023-03-31T15:56:27;3.22;;;1.60;;
56075;SDS011;41951;49.022;12.066;2023-03-31T15:59:05;3.17;;;1.00;;
56075;SDS011;41951;49.022;12.066;2023-03-31T16:01:45;3.50;;;1.27;;
56075;SDS011;41951;49.022;12.066;2023-03-31T16:04:14;2.22;;;1.10;;
56075;SDS011;41951;49.022;12.066;2023-03-31T16:09:14;3.55;;;1.00;;
56075;SDS011;41951;49.022;12.066;2023-03-31T16:11:56;5.30;;;1.40;;
56075;SDS011;41951;49.022;12.066;2023-03-31T16:14:34;4.05;;;1.30;;
56075;SDS011;41951;49.022;12.066;2023-03-31T16:17:07;6.05;;;1.23;;
56075;SDS011;41951;49.022;12.066;2023-03-31T16:20:02;4.20;;;1.13;;
56075;SDS011;41951;49.022;12.066;2023-03-31T16:22:38;5.65;;;1.23;;
56075;SDS011;41951;49.022;12.066;2023-03-31T16:25:10;4.95;;;1.23;;
56075;SDS011;41951;49.022;12.066;2023-03-31T16:27:45;4.97;;;1.13;;
56075;SDS011;41951;49.022;12.066;2023-03-31T16:30:16;4.65;;;1.30;;
56075;SDS011;41951;49.022;12.066;2023-03-31T16:33:02;3.45;;;1.20;;
56075;SDS011;41951;49.022;12.066;2023-03-31T16:35:41;4.88;;;1.30;;
56075;SDS011;41951;49.022;12.066;2023-03-31T16:38:18;4.53;;;1.30;;
56075;SDS011;41951;49.022;12.066;2023-03-31T16:40:45;4.55;;;1.38;;
56075;SDS011;41951;49.022;12.066;2023-03-31T16:45:44;2.67;;;0.90;;
56075;SDS011;41951;49.022;12.066;2023-03-31T16:48:11;1.55;;;0.82;;
56075;SDS011;41951;49.022;12.066;2023-03-31T16:50:38;3.45;;;1.15;;
56075;SDS011;41951;49.022;12.066;2023-03-31T16:53:05;6.90;;;3.42;;
56075;SDS011;41951;49.022;12.066;2023-03-31T16:55:30;21.88;;;11.18;;
56075;SDS011;41951;49.022;12.066;2023-03-31T16:57:56;4.05;;;1.55;;
56075;SDS011;41951;49.022;12.066;2023-03-31T17:00:26;4.10;;;1.02;;
56075;SDS011;41951;49.022;12.066;2023-03-31T17:02:55;4.35;;;1.10;;
56075;SDS011;41951;49.022;12.066;2023-03-31T17:05:22;2.97;;;0.95;;
56075;SDS011;41951;49.022;12.066;2023-03-31T17:07:48;4.03;;;1.17;;
56075;SDS011;41951;49.022;12.066;2023-03-31T17:10:13;7.32;;;1.80;;
56075;SDS011;41951;49.022;12.066;2023-03-31T17:12:40;4.53;;;1.17;;
56075;SDS011;41951;49.022;12.066;2023-03-31T17:15:06;3.78;;;1.08;;
56075;SDS011;41951;49.022;12.066;2023-03-31T17:17:32;4.22;;;1.00;;
56075;SDS011;41951;49.022;12.066;2023-03-31T17:19:58;3.08;;;1.00;;
56075;SDS011;41951;49.022;12.066;2023-03-31T17:22:23;2.95;;;1.10;;
56075;SDS011;41951;49.022;12.066;2023-03-31T17:24:49;4.28;;;1.10;;
56075;SDS011;41951;49.022;12.066;2023-03-31T17:27:20;4.00;;;1.10;;
56075;SDS011;41951;49.022;12.066;2023-03-31T17:29:46;3.85;;;1.25;;
56075;SDS011;41951;49.022;12.066;2023-03-31T17:32:12;7.05;;;3.90;;
56075;SDS011;41951;49.022;12.066;2023-03-31T17:34:39;4.13;;;1.70;;
56075;SDS011;41951;49.022;12.066;2023-03-31T17:37:05;15.00;;;8.70;;
56075;SDS011;41951;49.022;12.066;2023-03-31T17:39:30;3.08;;;1.52;;
56075;SDS011;41951;49.022;12.066;2023-03-31T17:41:56;6.38;;;3.58;;
56075;SDS011;41951;49.022;12.066;2023-03-31T17:44:22;2.70;;;1.30;;
56075;SDS011;41951;49.022;12.066;2023-03-31T17:46:48;2.42;;;0.95;;
56075;SDS011;41951;49.022;12.066;2023-03-31T17:49:14;7.43;;;4.38;;
56075;SDS011;41951;49.022;12.066;2023-03-31T17:51:42;3.40;;;1.30;;
56075;SDS011;41951;49.022;12.066;2023-03-31T17:54:11;4.55;;;1.17;;
56075;SDS011;41951;49.022;12.066;2023-03-31T17:56:37;2.28;;;0.90;;
56075;SDS011;41951;49.022;12.066;2023-03-31T17:59:03;3.65;;;1.10;;